8MI4 weather

Howe Airport
Morley, Michigan, United States

Public forecast

Using degrees Fahrenheit for public forecast. Weather courtesy of forecast.io.

Closest aviation weather report (METAR) to Howe Airport

Closest report is Roben Hood Airport, 13.9 nm (25.8 km) NNE. Retrieved 2020/01/17 18:36 UTC (0 seconds ago):

KRQB 171836Z AUTO 12010KT 10SM CLR M05/M11 A3066 RMK AO2 T10551113

Closest aviation forecast (TAF) to Howe Airport

Closest forecast is Muskegon County Airport, 35.0 nm (64.9 km) SW. Retrieved 2020/01/17 18:45 UTC (0 seconds ago):

TAF KMKG 171742Z 1718/1818 13011KT P6SM OVC200 FM180000 13012G20KT P6SM -SN OVC090 FM180100 13012G22KT 1 1/2SM -SN BR OVC030 FM180400 13013G23KT 3/4SM -SN BR OVC015 FM181300 14015G25KT 1SM -SN BR OVC008 FM181500 17015G27KT 2SM -RASN BR OVC006